sensor_id;sensor_type;location;lat;lon;timestamp;P1;durP1;ratioP1;P2;durP2;ratioP2
8982;SDS011;20979;59.850;10.660;2023-05-21T00:00:41;4.87;;;3.53;;
8982;SDS011;20979;59.850;10.660;2023-05-21T00:03:08;4.37;;;3.43;;
8982;SDS011;20979;59.850;10.660;2023-05-21T00:05:38;3.40;;;3.10;;
8982;SDS011;20979;59.850;10.660;2023-05-21T00:08:08;4.23;;;3.30;;
8982;SDS011;20979;59.850;10.660;2023-05-21T00:10:36;4.03;;;3.20;;
8982;SDS011;20979;59.850;10.660;2023-05-21T00:13:03;3.47;;;3.17;;
8982;SDS011;20979;59.850;10.660;2023-05-21T00:15:31;3.50;;;3.20;;
8982;SDS011;20979;59.850;10.660;2023-05-21T00:21:02;3.83;;;3.40;;
8982;SDS011;20979;59.850;10.660;2023-05-21T00:23:30;4.13;;;3.70;;
8982;SDS011;20979;59.850;10.660;2023-05-21T00:25:58;4.07;;;3.47;;
8982;SDS011;20979;59.850;10.660;2023-05-21T00:28:25;7.17;;;3.83;;
8982;SDS011;20979;59.850;10.660;2023-05-21T00:30:54;4.13;;;3.73;;
8982;SDS011;20979;59.850;10.660;2023-05-21T00:36:31;4.90;;;3.60;;
8982;SDS011;20979;59.850;10.660;2023-05-21T00:39:01;4.50;;;3.60;;
8982;SDS011;20979;59.850;10.660;2023-05-21T00:41:30;4.23;;;3.53;;
8982;SDS011;20979;59.850;10.660;2023-05-21T00:43:59;4.20;;;3.40;;
8982;SDS011;20979;59.850;10.660;2023-05-21T00:46:30;4.70;;;3.47;;
8982;SDS011;20979;59.850;10.660;2023-05-21T00:48:57;4.13;;;3.70;;
8982;SDS011;20979;59.850;10.660;2023-05-21T00:51:25;3.93;;;3.50;;
8982;SDS011;20979;59.850;10.660;2023-05-21T00:53:56;4.83;;;3.60;;
8982;SDS011;20979;59.850;10.660;2023-05-21T00:56:24;5.73;;;3.43;;
8982;SDS011;20979;59.850;10.660;2023-05-21T00:58:52;3.97;;;3.60;;
8982;SDS011;20979;59.850;10.660;2023-05-21T01:01:21;3.60;;;3.30;;
8982;SDS011;20979;59.850;10.660;2023-05-21T01:03:50;4.63;;;3.13;;
8982;SDS011;20979;59.850;10.660;2023-05-21T01:06:18;3.53;;;3.23;;
8982;SDS011;20979;59.850;10.660;2023-05-21T01:11:57;3.47;;;3.17;;
8982;SDS011;20979;59.850;10.660;2023-05-21T01:14:25;3.90;;;3.30;;
8982;SDS011;20979;59.850;10.660;2023-05-21T01:16:53;3.77;;;3.20;;
8982;SDS011;20979;59.850;10.660;2023-05-21T01:19:21;4.10;;;3.17;;
8982;SDS011;20979;59.850;10.660;2023-05-21T01:21:50;3.73;;;3.00;;
8982;SDS011;20979;59.850;10.660;2023-05-21T01:24:19;4.77;;;3.27;;
8982;SDS011;20979;59.850;10.660;2023-05-21T01:26:58;3.97;;;3.00;;
8982;SDS011;20979;59.850;10.660;2023-05-21T01:29:26;3.43;;;3.13;;
8982;SDS011;20979;59.850;10.660;2023-05-21T01:31:55;3.73;;;3.20;;
8982;SDS011;20979;59.850;10.660;2023-05-21T01:34:27;5.37;;;3.30;;
8982;SDS011;20979;59.850;10.660;2023-05-21T01:36:59;3.80;;;3.10;;
8982;SDS011;20979;59.850;10.660;2023-05-21T01:39:30;3.33;;;3.03;;
8982;SDS011;20979;59.850;10.660;2023-05-21T01:41:59;4.20;;;3.00;;
8982;SDS011;20979;59.850;10.660;2023-05-21T01:44:30;5.93;;;3.60;;
8982;SDS011;20979;59.850;10.660;2023-05-21T01:46:59;3.80;;;3.30;;
8982;SDS011;20979;59.850;10.660;2023-05-21T01:49:27;4.10;;;3.40;;
8982;SDS011;20979;59.850;10.660;2023-05-21T01:51:55;3.73;;;3.30;;
8982;SDS011;20979;59.850;10.660;2023-05-21T01:54:22;3.60;;;3.30;;
8982;SDS011;20979;59.850;10.660;2023-05-21T01:57:05;4.03;;;3.10;;
8982;SDS011;20979;59.850;10.660;2023-05-21T01:59:38;3.50;;;3.20;;
8982;SDS011;20979;59.850;10.660;2023-05-21T02:04:48;4.13;;;3.63;;
8982;SDS011;20979;59.850;10.660;2023-05-21T02:07:16;3.80;;;3.40;;
8982;SDS011;20979;59.850;10.660;2023-05-21T02:09:44;3.40;;;3.10;;
8982;SDS011;20979;59.850;10.660;2023-05-21T02:12:13;3.50;;;3.20;;
8982;SDS011;20979;59.850;10.660;2023-05-21T02:14:42;4.00;;;3.40;;
8982;SDS011;20979;59.850;10.660;2023-05-21T02:17:13;3.80;;;3.50;;
8982;SDS011;20979;59.850;10.660;2023-05-21T02:19:41;3.53;;;3.20;;
8982;SDS011;20979;59.850;10.660;2023-05-21T02:22:29;3.90;;;3.60;;
8982;SDS011;20979;59.850;10.660;2023-05-21T02:24:57;5.27;;;3.23;;
8982;SDS011;20979;59.850;10.660;2023-05-21T02:27:26;3.93;;;3.37;;
8982;SDS011;20979;59.850;10.660;2023-05-21T02:29:56;3.83;;;3.40;;
8982;SDS011;20979;59.850;10.660;2023-05-21T02:32:23;6.23;;;3.50;;
8982;SDS011;20979;59.850;10.660;2023-05-21T02:34:59;3.97;;;3.13;;
8982;SDS011;20979;59.850;10.660;2023-05-21T02:37:27;4.03;;;3.37;;
8982;SDS011;20979;59.850;10.660;2023-05-21T02:41:16;4.67;;;3.27;;
8982;SDS011;20979;59.850;10.660;2023-05-21T02:45:49;4.60;;;3.30;;
8982;SDS011;20979;59.850;10.660;2023-05-21T02:48:19;3.60;;;3.30;;
8982;SDS011;20979;59.850;10.660;2023-05-21T02:50:47;4.40;;;3.20;;
8982;SDS011;20979;59.850;10.660;2023-05-21T02:53:14;3.53;;;3.20;;
8982;SDS011;20979;59.850;10.660;2023-05-21T02:55:42;4.00;;;3.40;;
8982;SDS011;20979;59.850;10.660;2023-05-21T02:58:10;3.80;;;3.40;;
8982;SDS011;20979;59.850;10.660;2023-05-21T03:00:39;3.97;;;3.30;;
8982;SDS011;20979;59.850;10.660;2023-05-21T03:03:27;3.50;;;3.20;;
8982;SDS011;20979;59.850;10.660;2023-05-21T03:05:56;3.77;;;3.17;;
8982;SDS011;20979;59.850;10.660;2023-05-21T03:08:24;3.53;;;3.23;;
8982;SDS011;20979;59.850;10.660;2023-05-21T03:10:51;3.90;;;2.90;;
8982;SDS011;20979;59.850;10.660;2023-05-21T03:13:19;3.90;;;3.07;;
8982;SDS011;20979;59.850;10.660;2023-05-21T03:15:47;3.63;;;3.33;;
8982;SDS011;20979;59.850;10.660;2023-05-21T03:18:15;3.30;;;3.00;;
8982;SDS011;20979;59.850;10.660;2023-05-21T03:26:58;3.57;;;3.10;;
8982;SDS011;20979;59.850;10.660;2023-05-21T03:29:26;4.47;;;3.03;;
8982;SDS011;20979;59.850;10.660;2023-05-21T03:31:54;4.47;;;3.37;;
8982;SDS011;20979;59.850;10.660;2023-05-21T03:34:21;3.77;;;3.20;;
8982;SDS011;20979;59.850;10.660;2023-05-21T03:36:49;3.37;;;2.90;;
8982;SDS011;20979;59.850;10.660;2023-05-21T03:39:17;4.43;;;3.37;;
8982;SDS011;20979;59.850;10.660;2023-05-21T03:41:45;3.50;;;3.07;;
8982;SDS011;20979;59.850;10.660;2023-05-21T03:44:17;3.67;;;3.20;;
8982;SDS011;20979;59.850;10.660;2023-05-21T03:46:44;3.50;;;3.20;;
8982;SDS011;20979;59.850;10.660;2023-05-21T03:49:12;4.53;;;3.13;;
8982;SDS011;20979;59.850;10.660;2023-05-21T03:51:39;3.33;;;2.90;;
8982;SDS011;20979;59.850;10.660;2023-05-21T03:54:13;3.47;;;3.17;;
8982;SDS011;20979;59.850;10.660;2023-05-21T03:56:46;3.10;;;2.80;;
8982;SDS011;20979;59.850;10.660;2023-05-21T03:59:13;3.60;;;3.30;;
8982;SDS011;20979;59.850;10.660;2023-05-21T04:01:42;3.60;;;3.03;;
8982;SDS011;20979;59.850;10.660;2023-05-21T04:04:10;3.63;;;3.30;;
8982;SDS011;20979;59.850;10.660;2023-05-21T04:06:47;3.93;;;2.97;;
8982;SDS011;20979;59.850;10.660;2023-05-21T04:09:14;4.93;;;3.40;;
8982;SDS011;20979;59.850;10.660;2023-05-21T04:11:42;3.47;;;3.17;;
8982;SDS011;20979;59.850;10.660;2023-05-21T04:14:09;4.00;;;3.17;;
8982;SDS011;20979;59.850;10.660;2023-05-21T04:16:37;3.43;;;2.90;;
8982;SDS011;20979;59.850;10.660;2023-05-21T04:19:12;3.77;;;3.40;;
8982;SDS011;20979;59.850;10.660;2023-05-21T04:21:40;3.70;;;3.40;;
8982;SDS011;20979;59.850;10.660;2023-05-21T04:27:24;3.37;;;3.07;;
8982;SDS011;20979;59.850;10.660;2023-05-21T04:29:51;3.50;;;3.20;;
8982;SDS011;20979;59.850;10.660;2023-05-21T04:32:20;4.70;;;3.27;;
8982;SDS011;20979;59.850;10.660;2023-05-21T04:34:59;4.53;;;3.43;;
8982;SDS011;20979;59.850;10.660;2023-05-21T04:37:34;3.40;;;3.10;;
8982;SDS011;20979;59.850;10.660;2023-05-21T04:43:17;3.70;;;3.40;;
8982;SDS011;20979;59.850;10.660;2023-05-21T04:45:49;5.37;;;3.47;;
8982;SDS011;20979;59.850;10.660;2023-05-21T04:48:19;3.37;;;3.07;;
8982;SDS011;20979;59.850;10.660;2023-05-21T04:50:48;5.97;;;3.10;;
8982;SDS011;20979;59.850;10.660;2023-05-21T04:53:17;4.43;;;3.23;;
8982;SDS011;20979;59.850;10.660;2023-05-21T04:55:47;5.07;;;3.33;;
8982;SDS011;20979;59.850;10.660;2023-05-21T04:58:15;3.53;;;3.00;;
8982;SDS011;20979;59.850;10.660;2023-05-21T05:00:53;4.33;;;3.43;;
8982;SDS011;20979;59.850;10.660;2023-05-21T05:03:32;4.13;;;3.30;;
8982;SDS011;20979;59.850;10.660;2023-05-21T05:06:01;3.50;;;3.07;;
8982;SDS011;20979;59.850;10.660;2023-05-21T05:08:29;4.23;;;3.50;;
8982;SDS011;20979;59.850;10.660;2023-05-21T05:10:57;5.30;;;3.40;;
8982;SDS011;20979;59.850;10.660;2023-05-21T05:13:25;5.00;;;3.20;;
8982;SDS011;20979;59.850;10.660;2023-05-21T05:15:54;3.23;;;2.93;;
8982;SDS011;20979;59.850;10.660;2023-05-21T05:18:29;4.57;;;3.33;;
8982;SDS011;20979;59.850;10.660;2023-05-21T05:24:05;5.80;;;3.47;;
8982;SDS011;20979;59.850;10.660;2023-05-21T05:26:32;4.47;;;3.10;;
8982;SDS011;20979;59.850;10.660;2023-05-21T05:29:00;4.17;;;3.10;;
8982;SDS011;20979;59.850;10.660;2023-05-21T05:31:28;3.77;;;3.00;;
8982;SDS011;20979;59.850;10.660;2023-05-21T05:33:55;3.27;;;2.90;;
8982;SDS011;20979;59.850;10.660;2023-05-21T05:36:23;3.27;;;2.97;;
8982;SDS011;20979;59.850;10.660;2023-05-21T05:38:51;3.63;;;3.30;;
8982;SDS011;20979;59.850;10.660;2023-05-21T05:41:20;5.87;;;3.03;;
8982;SDS011;20979;59.850;10.660;2023-05-21T05:44:01;3.70;;;3.27;;
8982;SDS011;20979;59.850;10.660;2023-05-21T05:46:42;4.00;;;3.23;;
8982;SDS011;20979;59.850;10.660;2023-05-21T05:49:10;3.43;;;3.13;;
8982;SDS011;20979;59.850;10.660;2023-05-21T05:51:38;3.77;;;3.40;;
8982;SDS011;20979;59.850;10.660;2023-05-21T05:54:05;3.83;;;3.43;;
8982;SDS011;20979;59.850;10.660;2023-05-21T05:56:34;3.90;;;3.33;;
8982;SDS011;20979;59.850;10.660;2023-05-21T05:59:01;3.80;;;3.40;;
8982;SDS011;20979;59.850;10.660;2023-05-21T06:01:29;3.63;;;3.30;;
8982;SDS011;20979;59.850;10.660;2023-05-21T06:03:56;3.60;;;3.30;;
8982;SDS011;20979;59.850;10.660;2023-05-21T06:06:24;4.33;;;3.20;;
8982;SDS011;20979;59.850;10.660;2023-05-21T06:08:51;4.63;;;3.27;;
8982;SDS011;20979;59.850;10.660;2023-05-21T06:11:19;3.97;;;3.10;;
8982;SDS011;20979;59.850;10.660;2023-05-21T06:16:50;3.53;;;3.23;;
8982;SDS011;20979;59.850;10.660;2023-05-21T06:19:19;3.67;;;3.00;;
8982;SDS011;20979;59.850;10.660;2023-05-21T06:25:04;3.17;;;2.90;;
8982;SDS011;20979;59.850;10.660;2023-05-21T06:27:32;3.60;;;3.30;;
8982;SDS011;20979;59.850;10.660;2023-05-21T06:30:00;3.80;;;3.10;;
8982;SDS011;20979;59.850;10.660;2023-05-21T06:32:29;5.67;;;3.80;;
8982;SDS011;20979;59.850;10.660;2023-05-21T06:35:10;3.43;;;3.13;;
8982;SDS011;20979;59.850;10.660;2023-05-21T06:37:38;3.70;;;3.30;;
8982;SDS011;20979;59.850;10.660;2023-05-21T06:40:13;3.60;;;3.30;;
8982;SDS011;20979;59.850;10.660;2023-05-21T06:42:41;4.50;;;3.20;;
8982;SDS011;20979;59.850;10.660;2023-05-21T06:45:08;6.00;;;3.40;;
8982;SDS011;20979;59.850;10.660;2023-05-21T06:53:34;3.70;;;3.25;;
8982;SDS011;20979;59.850;10.660;2023-05-21T06:56:22;3.40;;;3.10;;
8982;SDS011;20979;59.850;10.660;2023-05-21T06:58:50;4.18;;;2.92;;
8982;SDS011;20979;59.850;10.660;2023-05-21T07:01:18;3.22;;;2.92;;
8982;SDS011;20979;59.850;10.660;2023-05-21T07:03:46;3.72;;;2.83;;
8982;SDS011;20979;59.850;10.660;2023-05-21T07:11:56;3.40;;;2.60;;
8982;SDS011;20979;59.850;10.660;2023-05-21T07:14:24;2.80;;;2.60;;
8982;SDS011;20979;59.850;10.660;2023-05-21T07:16:51;3.33;;;2.50;;
8982;SDS011;20979;59.850;10.660;2023-05-21T07:19:32;3.63;;;2.55;;
8982;SDS011;20979;59.850;10.660;2023-05-21T07:22:02;3.45;;;2.80;;
8982;SDS011;20979;59.850;10.660;2023-05-21T07:24:30;3.47;;;2.60;;
8982;SDS011;20979;59.850;10.660;2023-05-21T07:26:58;3.00;;;2.80;;
8982;SDS011;20979;59.850;10.660;2023-05-21T07:29:26;2.97;;;2.55;;
8982;SDS011;20979;59.850;10.660;2023-05-21T07:31:53;3.17;;;2.63;;
8982;SDS011;20979;59.850;10.660;2023-05-21T07:34:20;3.55;;;2.72;;
8982;SDS011;20979;59.850;10.660;2023-05-21T07:36:48;5.28;;;2.67;;
8982;SDS011;20979;59.850;10.660;2023-05-21T07:39:15;3.10;;;2.72;;
8982;SDS011;20979;59.850;10.660;2023-05-21T07:41:43;2.80;;;2.60;;
8982;SDS011;20979;59.850;10.660;2023-05-21T07:44:15;4.25;;;2.53;;
8982;SDS011;20979;59.850;10.660;2023-05-21T07:46:42;3.25;;;2.95;;
8982;SDS011;20979;59.850;10.660;2023-05-21T07:49:23;3.45;;;2.90;;
8982;SDS011;20979;59.850;10.660;2023-05-21T07:51:51;3.03;;;2.70;;
8982;SDS011;20979;59.850;10.660;2023-05-21T07:54:18;5.95;;;2.88;;
8982;SDS011;20979;59.850;10.660;2023-05-21T07:56:45;2.85;;;2.50;;
8982;SDS011;20979;59.850;10.660;2023-05-21T07:59:13;4.30;;;2.75;;
8982;SDS011;20979;59.850;10.660;2023-05-21T08:01:42;2.80;;;2.50;;
8982;SDS011;20979;59.850;10.660;2023-05-21T08:04:10;3.03;;;2.70;;
8982;SDS011;20979;59.850;10.660;2023-05-21T08:06:38;2.83;;;2.63;;
8982;SDS011;20979;59.850;10.660;2023-05-21T08:09:19;2.92;;;2.63;;
8982;SDS011;20979;59.850;10.660;2023-05-21T08:11:46;5.68;;;2.80;;
8982;SDS011;20979;59.850;10.660;2023-05-21T08:14:14;2.90;;;2.60;;
8982;SDS011;20979;59.850;10.660;2023-05-21T08:16:43;2.92;;;2.63;;
8982;SDS011;20979;59.850;10.660;2023-05-21T08:19:10;3.20;;;2.90;;
8982;SDS011;20979;59.850;10.660;2023-05-21T08:21:38;4.72;;;3.00;;
8982;SDS011;20979;59.850;10.660;2023-05-21T08:24:05;3.17;;;2.65;;
8982;SDS011;20979;59.850;10.660;2023-05-21T08:26:33;4.22;;;2.78;;
8982;SDS011;20979;59.850;10.660;2023-05-21T08:29:00;2.45;;;2.25;;
8982;SDS011;20979;59.850;10.660;2023-05-21T08:31:37;2.70;;;2.50;;
8982;SDS011;20979;59.850;10.660;2023-05-21T08:34:07;3.53;;;2.85;;
8982;SDS011;20979;59.850;10.660;2023-05-21T08:36:35;2.60;;;2.35;;
8982;SDS011;20979;59.850;10.660;2023-05-21T08:39:16;3.42;;;2.40;;
8982;SDS011;20979;59.850;10.660;2023-05-21T08:41:44;4.95;;;2.80;;
8982;SDS011;20979;59.850;10.660;2023-05-21T08:44:13;2.40;;;2.20;;
8982;SDS011;20979;59.850;10.660;2023-05-21T08:46:41;3.05;;;2.40;;
8982;SDS011;20979;59.850;10.660;2023-05-21T08:49:35;2.30;;;2.03;;
8982;SDS011;20979;59.850;10.660;2023-05-21T08:52:29;1.90;;;1.80;;
8982;SDS011;20979;59.850;10.660;2023-05-21T08:54:57;2.80;;;1.90;;
8982;SDS011;20979;59.850;10.660;2023-05-21T08:57:41;2.17;;;1.98;;
8982;SDS011;20979;59.850;10.660;2023-05-21T09:00:09;2.72;;;1.95;;
8982;SDS011;20979;59.850;10.660;2023-05-21T09:02:38;4.47;;;2.30;;
8982;SDS011;20979;59.850;10.660;2023-05-21T09:05:09;3.38;;;2.42;;
8982;SDS011;20979;59.850;10.660;2023-05-21T09:07:38;2.30;;;2.10;;
8982;SDS011;20979;59.850;10.660;2023-05-21T09:12:54;2.35;;;2.10;;
8982;SDS011;20979;59.850;10.660;2023-05-21T09:15:25;2.85;;;2.20;;
8982;SDS011;20979;59.850;10.660;2023-05-21T09:17:53;3.25;;;2.03;;
8982;SDS011;20979;59.850;10.660;2023-05-21T09:23:22;6.03;;;2.17;;
8982;SDS011;20979;59.850;10.660;2023-05-21T09:25:49;4.78;;;2.45;;
8982;SDS011;20979;59.850;10.660;2023-05-21T09:28:18;3.25;;;2.45;;
8982;SDS011;20979;59.850;10.660;2023-05-21T09:30:46;2.92;;;2.42;;
8982;SDS011;20979;59.850;10.660;2023-05-21T09:33:22;3.30;;;2.20;;
8982;SDS011;20979;59.850;10.660;2023-05-21T09:38:55;2.70;;;2.03;;
8982;SDS011;20979;59.850;10.660;2023-05-21T09:41:30;3.95;;;2.17;;
8982;SDS011;20979;59.850;10.660;2023-05-21T09:47:23;2.25;;;2.05;;
8982;SDS011;20979;59.850;10.660;2023-05-21T09:49:50;4.00;;;2.00;;
8982;SDS011;20979;59.850;10.660;2023-05-21T09:52:24;2.88;;;1.95;;
8982;SDS011;20979;59.850;10.660;2023-05-21T09:54:54;2.10;;;2.00;;
8982;SDS011;20979;59.850;10.660;2023-05-21T10:00:27;3.42;;;2.17;;
8982;SDS011;20979;59.850;10.660;2023-05-21T10:02:55;2.88;;;2.05;;
8982;SDS011;20979;59.850;10.660;2023-05-21T10:10:54;2.83;;;2.30;;
8982;SDS011;20979;59.850;10.660;2023-05-21T10:13:21;2.42;;;2.28;;
8982;SDS011;20979;59.850;10.660;2023-05-21T10:15:52;2.67;;;2.47;;
8982;SDS011;20979;59.850;10.660;2023-05-21T10:18:21;2.70;;;2.25;;
8982;SDS011;20979;59.850;10.660;2023-05-21T10:21:02;3.15;;;2.28;;
8982;SDS011;20979;59.850;10.660;2023-05-21T10:23:43;2.55;;;2.03;;
8982;SDS011;20979;59.850;10.660;2023-05-21T10:26:14;2.80;;;2.50;;
8982;SDS011;20979;59.850;10.660;2023-05-21T10:28:48;3.05;;;2.13;;
8982;SDS011;20979;59.850;10.660;2023-05-21T10:31:17;3.03;;;2.30;;
8982;SDS011;20979;59.850;10.660;2023-05-21T10:33:44;2.90;;;2.60;;
8982;SDS011;20979;59.850;10.660;2023-05-21T10:39:13;3.55;;;2.60;;
8982;SDS011;20979;59.850;10.660;2023-05-21T10:44:52;2.70;;;2.50;;
8982;SDS011;20979;59.850;10.660;2023-05-21T10:47:48;3.00;;;2.47;;
8982;SDS011;20979;59.850;10.660;2023-05-21T10:53:07;3.00;;;2.70;;
8982;SDS011;20979;59.850;10.660;2023-05-21T10:55:49;3.00;;;2.20;;
8982;SDS011;20979;59.850;10.660;2023-05-21T10:58:22;3.42;;;2.30;;
8982;SDS011;20979;59.850;10.660;2023-05-21T11:00:56;2.63;;;2.40;;
8982;SDS011;20979;59.850;10.660;2023-05-21T11:03:25;3.33;;;2.20;;
8982;SDS011;20979;59.850;10.660;2023-05-21T11:05:54;3.03;;;2.50;;
8982;SDS011;20979;59.850;10.660;2023-05-21T11:08:22;3.03;;;2.40;;
8982;SDS011;20979;59.850;10.660;2023-05-21T11:10:50;2.60;;;2.40;;
8982;SDS011;20979;59.850;10.660;2023-05-21T11:13:18;2.97;;;2.50;;
8982;SDS011;20979;59.850;10.660;2023-05-21T11:16:04;3.20;;;2.50;;
8982;SDS011;20979;59.850;10.660;2023-05-21T11:21:21;2.70;;;2.40;;
8982;SDS011;20979;59.850;10.660;2023-05-21T11:23:52;3.90;;;2.50;;
8982;SDS011;20979;59.850;10.660;2023-05-21T11:36:11;2.38;;;2.17;;
8982;SDS011;20979;59.850;10.660;2023-05-21T11:38:38;2.75;;;2.55;;
8982;SDS011;20979;59.850;10.660;2023-05-21T11:41:06;2.72;;;2.33;;
8982;SDS011;20979;59.850;10.660;2023-05-21T11:43:38;3.08;;;2.72;;
8982;SDS011;20979;59.850;10.660;2023-05-21T11:46:06;2.67;;;2.30;;
8982;SDS011;20979;59.850;10.660;2023-05-21T11:48:36;1.98;;;1.88;;
8982;SDS011;20979;59.850;10.660;2023-05-21T11:51:04;3.15;;;2.30;;
8982;SDS011;20979;59.850;10.660;2023-05-21T11:53:33;2.33;;;2.13;;
8982;SDS011;20979;59.850;10.660;2023-05-21T11:56:03;2.58;;;2.20;;
8982;SDS011;20979;59.850;10.660;2023-05-21T11:58:34;2.25;;;2.05;;
8982;SDS011;20979;59.850;10.660;2023-05-21T12:01:01;3.05;;;2.00;;
8982;SDS011;20979;59.850;10.660;2023-05-21T12:03:33;2.20;;;2.00;;
8982;SDS011;20979;59.850;10.660;2023-05-21T12:06:03;3.45;;;2.20;;
8982;SDS011;20979;59.850;10.660;2023-05-21T12:08:33;2.65;;;2.05;;
8982;SDS011;20979;59.850;10.660;2023-05-21T12:11:04;2.45;;;2.10;;
8982;SDS011;20979;59.850;10.660;2023-05-21T12:13:31;2.22;;;1.80;;
8982;SDS011;20979;59.850;10.660;2023-05-21T12:15:59;2.63;;;2.20;;
8982;SDS011;20979;59.850;10.660;2023-05-21T12:18:27;2.83;;;2.08;;
8982;SDS011;20979;59.850;10.660;2023-05-21T12:20:54;2.63;;;2.00;;
8982;SDS011;20979;59.850;10.660;2023-05-21T12:23:22;2.25;;;2.05;;
8982;SDS011;20979;59.850;10.660;2023-05-21T12:25:54;2.10;;;1.90;;
8982;SDS011;20979;59.850;10.660;2023-05-21T12:31:28;1.92;;;1.77;;
8982;SDS011;20979;59.850;10.660;2023-05-21T12:33:56;2.40;;;2.20;;
8982;SDS011;20979;59.850;10.660;2023-05-21T12:36:26;2.50;;;2.30;;
8982;SDS011;20979;59.850;10.660;2023-05-21T12:38:54;2.90;;;2.30;;
8982;SDS011;20979;59.850;10.660;2023-05-21T12:41:24;3.00;;;2.35;;
8982;SDS011;20979;59.850;10.660;2023-05-21T12:43:52;2.20;;;2.00;;
8982;SDS011;20979;59.850;10.660;2023-05-21T12:46:20;2.42;;;2.22;;
8982;SDS011;20979;59.850;10.660;2023-05-21T12:48:48;3.42;;;2.05;;
8982;SDS011;20979;59.850;10.660;2023-05-21T12:54:12;2.40;;;2.20;;
8982;SDS011;20979;59.850;10.660;2023-05-21T12:56:47;2.40;;;2.25;;
8982;SDS011;20979;59.850;10.660;2023-05-21T12:59:14;3.05;;;2.33;;
8982;SDS011;20979;59.850;10.660;2023-05-21T13:01:45;3.35;;;2.30;;
8982;SDS011;20979;59.850;10.660;2023-05-21T13:04:13;2.40;;;2.20;;
8982;SDS011;20979;59.850;10.660;2023-05-21T13:06:43;2.45;;;2.20;;
8982;SDS011;20979;59.850;10.660;2023-05-21T13:09:11;3.60;;;2.03;;
8982;SDS011;20979;59.850;10.660;2023-05-21T13:11:38;2.60;;;2.40;;
8982;SDS011;20979;59.850;10.660;2023-05-21T13:14:07;2.45;;;2.20;;
8982;SDS011;20979;59.850;10.660;2023-05-21T13:16:35;2.45;;;2.20;;
8982;SDS011;20979;59.850;10.660;2023-05-21T13:19:02;3.42;;;2.20;;
8982;SDS011;20979;59.850;10.660;2023-05-21T13:21:29;2.30;;;2.08;;
8982;SDS011;20979;59.850;10.660;2023-05-21T13:23:57;2.47;;;2.28;;
8982;SDS011;20979;59.850;10.660;2023-05-21T13:26:24;2.42;;;2.22;;
8982;SDS011;20979;59.850;10.660;2023-05-21T13:28:54;3.25;;;2.35;;
8982;SDS011;20979;59.850;10.660;2023-05-21T13:31:23;3.42;;;2.40;;
8982;SDS011;20979;59.850;10.660;2023-05-21T13:33:51;2.40;;;2.20;;
8982;SDS011;20979;59.850;10.660;2023-05-21T13:36:18;2.63;;;2.40;;
8982;SDS011;20979;59.850;10.660;2023-05-21T13:38:46;2.78;;;2.58;;
8982;SDS011;20979;59.850;10.660;2023-05-21T13:41:13;2.88;;;2.45;;
8982;SDS011;20979;59.850;10.660;2023-05-21T13:43:40;2.75;;;2.30;;
8982;SDS011;20979;59.850;10.660;2023-05-21T13:46:08;2.47;;;2.28;;
8982;SDS011;20979;59.850;10.660;2023-05-21T13:48:51;2.67;;;2.40;;
8982;SDS011;20979;59.850;10.660;2023-05-21T13:51:27;2.80;;;2.47;;
8982;SDS011;20979;59.850;10.660;2023-05-21T13:56:57;2.30;;;2.10;;
8982;SDS011;20979;59.850;10.660;2023-05-21T13:59:24;3.75;;;2.50;;
8982;SDS011;20979;59.850;10.660;2023-05-21T14:01:52;3.03;;;2.35;;
8982;SDS011;20979;59.850;10.660;2023-05-21T14:04:21;3.25;;;2.20;;
8982;SDS011;20979;59.850;10.660;2023-05-21T14:06:49;2.92;;;2.40;;
8982;SDS011;20979;59.850;10.660;2023-05-21T14:09:16;2.85;;;2.30;;
8982;SDS011;20979;59.850;10.660;2023-05-21T14:12:09;4.22;;;2.30;;
8982;SDS011;20979;59.850;10.660;2023-05-21T14:14:37;2.58;;;2.38;;
8982;SDS011;20979;59.850;10.660;2023-05-21T14:17:04;2.95;;;2.20;;
8982;SDS011;20979;59.850;10.660;2023-05-21T14:19:33;2.63;;;2.28;;
8982;SDS011;20979;59.850;10.660;2023-05-21T14:22:01;2.40;;;2.20;;
8982;SDS011;20979;59.850;10.660;2023-05-21T14:24:38;2.95;;;2.10;;
8982;SDS011;20979;59.850;10.660;2023-05-21T14:27:14;2.60;;;2.40;;
8982;SDS011;20979;59.850;10.660;2023-05-21T14:30:04;2.65;;;2.28;;
8982;SDS011;20979;59.850;10.660;2023-05-21T14:32:32;2.80;;;2.40;;
8982;SDS011;20979;59.850;10.660;2023-05-21T14:35:02;3.75;;;2.28;;
8982;SDS011;20979;59.850;10.660;2023-05-21T14:37:43;2.30;;;2.05;;
8982;SDS011;20979;59.850;10.660;2023-05-21T14:40:11;3.00;;;2.30;;
8982;SDS011;20979;59.850;10.660;2023-05-21T14:48:51;2.45;;;2.25;;
8982;SDS011;20979;59.850;10.660;2023-05-21T14:51:20;2.40;;;2.20;;
8982;SDS011;20979;59.850;10.660;2023-05-21T14:59:56;3.10;;;2.25;;
8982;SDS011;20979;59.850;10.660;2023-05-21T15:08:54;2.60;;;2.40;;
8982;SDS011;20979;59.850;10.660;2023-05-21T15:11:45;5.80;;;2.45;;
8982;SDS011;20979;59.850;10.660;2023-05-21T15:17:38;2.95;;;2.30;;
8982;SDS011;20979;59.850;10.660;2023-05-21T15:20:23;2.10;;;2.00;;
8982;SDS011;20979;59.850;10.660;2023-05-21T15:23:05;3.15;;;2.50;;
8982;SDS011;20979;59.850;10.660;2023-05-21T15:25:34;2.72;;;2.10;;
8982;SDS011;20979;59.850;10.660;2023-05-21T15:28:01;2.80;;;2.60;;
8982;SDS011;20979;59.850;10.660;2023-05-21T15:30:29;3.95;;;2.25;;
8982;SDS011;20979;59.850;10.660;2023-05-21T15:32:57;3.45;;;2.45;;
8982;SDS011;20979;59.850;10.660;2023-05-21T15:35:24;3.50;;;2.40;;
8982;SDS011;20979;59.850;10.660;2023-05-21T15:37:52;3.10;;;2.50;;
8982;SDS011;20979;59.850;10.660;2023-05-21T15:40:22;2.50;;;2.20;;
8982;SDS011;20979;59.850;10.660;2023-05-21T15:42:54;3.53;;;2.25;;
8982;SDS011;20979;59.850;10.660;2023-05-21T15:45:47;2.70;;;2.45;;
8982;SDS011;20979;59.850;10.660;2023-05-21T15:48:15;6.05;;;2.38;;
8982;SDS011;20979;59.850;10.660;2023-05-21T15:53:50;2.20;;;2.00;;
8982;SDS011;20979;59.850;10.660;2023-05-21T15:56:47;3.03;;;2.72;;
8982;SDS011;20979;59.850;10.660;2023-05-21T15:59:35;2.60;;;2.40;;
8982;SDS011;20979;59.850;10.660;2023-05-21T16:02:06;2.38;;;2.17;;
8982;SDS011;20979;59.850;10.660;2023-05-21T16:07:44;2.35;;;2.20;;
8982;SDS011;20979;59.850;10.660;2023-05-21T16:13:25;2.75;;;2.05;;
8982;SDS011;20979;59.850;10.660;2023-05-21T16:15:55;2.42;;;2.22;;
8982;SDS011;20979;59.850;10.660;2023-05-21T16:18:23;2.70;;;2.50;;
8982;SDS011;20979;59.850;10.660;2023-05-21T16:20:53;2.65;;;2.45;;
8982;SDS011;20979;59.850;10.660;2023-05-21T16:29:42;2.97;;;2.38;;
8982;SDS011;20979;59.850;10.660;2023-05-21T16:32:12;2.53;;;2.33;;
8982;SDS011;20979;59.850;10.660;2023-05-21T16:37:55;3.88;;;2.10;;
8982;SDS011;20979;59.850;10.660;2023-05-21T16:40:29;2.80;;;2.08;;
8982;SDS011;20979;59.850;10.660;2023-05-21T16:43:17;3.13;;;2.20;;
8982;SDS011;20979;59.850;10.660;2023-05-21T16:46:02;3.08;;;2.35;;
8982;SDS011;20979;59.850;10.660;2023-05-21T16:48:31;3.30;;;2.42;;
8982;SDS011;20979;59.850;10.660;2023-05-21T16:51:02;2.47;;;2.28;;
8982;SDS011;20979;59.850;10.660;2023-05-21T16:53:30;2.75;;;2.50;;
8982;SDS011;20979;59.850;10.660;2023-05-21T16:55:58;3.80;;;2.35;;
8982;SDS011;20979;59.850;10.660;2023-05-21T16:58:36;2.38;;;2.17;;
8982;SDS011;20979;59.850;10.660;2023-05-21T17:01:03;2.90;;;2.22;;
8982;SDS011;20979;59.850;10.660;2023-05-21T17:03:32;2.92;;;2.42;;
8982;SDS011;20979;59.850;10.660;2023-05-21T17:06:00;3.13;;;2.33;;
8982;SDS011;20979;59.850;10.660;2023-05-21T17:08:28;4.63;;;2.42;;
8982;SDS011;20979;59.850;10.660;2023-05-21T17:13:58;4.47;;;2.22;;
8982;SDS011;20979;59.850;10.660;2023-05-21T17:16:26;2.88;;;2.53;;
8982;SDS011;20979;59.850;10.660;2023-05-21T17:21:49;2.83;;;2.63;;
8982;SDS011;20979;59.850;10.660;2023-05-21T17:27:20;3.30;;;2.40;;
8982;SDS011;20979;59.850;10.660;2023-05-21T17:29:48;2.45;;;2.25;;
8982;SDS011;20979;59.850;10.660;2023-05-21T17:32:15;2.85;;;2.30;;
8982;SDS011;20979;59.850;10.660;2023-05-21T17:34:45;2.88;;;2.40;;
8982;SDS011;20979;59.850;10.660;2023-05-21T17:37:16;2.40;;;2.20;;